Terminal Aerodrome Forecast
Issued by NWS Northern Indiana

Home | Current Version | Previous Version | Text Only | Print | Product List | Glossary On
Versions: 1 2 3 4 5 6 7 8 9 10 11 12 13 14 15 16 17 18 19
000
FTUS43 KIWX 300522
TAFFWA
TAF
KFWA 300522Z 3006/3106 05005KT 3SM BR SCT005 BKN080
      TEMPO 3009/3013 2SM BR BKN005
     FM301600 24003KT P6SM VCSH BKN035
     FM302100 26005KT P6SM VCTS BKN040CB
     FM310300 24003KT P6SM BKN250=

USA.gov is the U.S. government's official web portal to all federal, state and local government web resources and services.